Newark, New Jersey
Current Conditions -  °F | °C
As of 5:51 AM on Friday 24 Oct 2014 (Local Time) from KEWR Reporting Station
Broken Clouds Broken Clouds  
Wind Chill: 50°   Ceiling: 10000
Heat Index: 50°   Visibility: 10mi
Dew Point: 43°   Wind: 7mph
Humidity: 77%   Direction: 280°W
Pressure: 29.8"   Gusts: NA
Location:  40.73°N, 74.17°W
Report Text: KEWR 240951Z 28006KT 10SM FEW035 BKN100 BKN180 10/06 A2980 RMK AO2 SLP091 T01000061 $
Loading
Personal Weather Stations






























Interactive Weather Map
Tropical Storm Tracking
New forecast layout! Learn more

10-Day Weather Forecast

Advertisements
Track Severe Weather on mobile